aviador You're here:

KOFF Decoded Metar

OMAHA in NE, USA
Report Time2018-01-18 09:56:00
UTC Time2018-01-18 10:08:59
Flight Rules vfr VFR
WindCalm
Visibility9999 m
Phenomena:N/A
Clouds:N/A
Expected CloudBase > 800 ft AGL from Temp-Dew spread
CeilingNone
Temp-15°C (ISA -28)
Dew Point-17°C (85% RH)
AAT-18.5°C
QNH1023 hPa
Density Alt-2,795 ft
Elevation1,047 ft
Report Wrong Elevation
Raw Report
KOFF 180956Z AUTO 00000KT 10SM CLR M15/M17 A3020 RMK AO2 SLP251
T11461169 TSNO $=

Extra information for KOFF:More info

Metar Taf Metar & Taf Last 4 Metars F.Rules Stats Wind Profile Meteogram Temp Stats Airport Information Weather charts Add Link Nearby VenuesMetar ALERT Operation Metar Decoded Social comments

AIRNAV info for KOFF